Time;durP1;ratioP1;P1;durP2;ratioP2;P2;SDS_P1;SDS_P2;PMS_P1;PMS_P2;Temp;Humidity;BMP_temperature;BMP_pressure;BME280_temperature;BME280_humidity;BME280_pressure;Samples;Min_cycle;Max_cycle;Signal;HPM_P1;HPM_P2
2023/03/18 00:00:17;;;;;;;37.53;18.88;;;;;;;0.51;93.33;95057.50;5030978;28;20208;-76
2023/03/18 00:02:46;;;;;;;35.28;19.75;;;;;;;0.57;93.00;95051.16;5030745;28;20211;-75
2023/03/18 00:05:13;;;;;;;34.58;18.15;;;;;;;0.57;92.29;95045.81;5030969;28;20207;-77
2023/03/18 00:07:40;;;;;;;30.27;17.23;;;;;;;0.48;92.76;95051.88;5030654;28;20230;-77
2023/03/18 00:10:09;;;;;;;29.52;17.08;;;;;;;0.45;93.19;95042.53;5030366;28;20231;-76
2023/03/18 00:12:37;;;;;;;31.52;17.48;;;;;;;0.36;93.27;95033.41;5031113;28;20299;-76
2023/03/18 00:15:05;;;;;;;32.53;17.20;;;;;;;0.53;93.53;95039.41;5030537;28;20204;-77
2023/03/18 00:17:32;;;;;;;29.80;16.15;;;;;;;0.57;92.97;95043.16;5030234;28;20262;-78
2023/03/18 00:20:04;;;;;;;52.42;24.73;;;;;;;0.44;92.83;95040.91;5030916;28;20215;-77
2023/03/18 00:22:32;;;;;;;20.20;9.05;;;;;;;0.44;92.61;95040.91;5030436;28;20234;-76
2023/03/18 00:24:58;;;;;;;14.15;6.85;;;;;;;0.45;92.05;95031.84;5030537;28;20244;-78
2023/03/18 00:27:26;;;;;;;16.15;7.35;;;;;;;0.29;93.48;95038.09;5030386;28;20223;-78
2023/03/18 00:29:53;;;;;;;13.93;7.82;;;;;;;0.24;94.13;95027.44;5030461;28;20211;-77
2023/03/18 00:32:20;;;;;;;16.20;8.32;;;;;;;0.28;93.84;95025.84;5030559;28;20208;-77
2023/03/18 00:34:47;;;;;;;19.88;8.18;;;;;;;0.33;94.35;95025.91;5030241;28;20204;-76
2023/03/18 00:37:28;;;;;;;27.42;9.07;;;;;;;0.34;94.31;95024.84;5029670;28;20695;-77
2023/03/18 00:39:55;;;;;;;16.23;7.93;;;;;;;0.23;93.98;95021.28;5030288;28;20203;-75
2023/03/18 00:42:22;;;;;;;14.27;6.63;;;;;;;0.32;94.47;95018.97;5030103;28;20213;-77
2023/03/18 00:44:49;;;;;;;15.85;6.97;;;;;;;0.45;93.97;95015.06;5029655;28;20295;-76
2023/03/18 00:47:16;;;;;;;17.25;6.82;;;;;;;0.29;93.69;95006.16;5029837;28;20889;-78
2023/03/18 00:49:42;;;;;;;11.30;5.95;;;;;;;0.29;93.70;95000.81;5029550;28;20212;-76
2023/03/18 00:52:09;;;;;;;14.70;6.30;;;;;;;0.37;93.33;95003.03;5029387;28;20236;-78
2023/03/18 00:54:37;;;;;;;15.18;5.55;;;;;;;0.37;93.01;95003.03;5029661;28;20254;-77
2023/03/18 00:57:05;;;;;;;13.65;6.57;;;;;;;0.37;93.63;94996.91;5029642;28;20683;-78
2023/03/18 00:59:32;;;;;;;16.77;7.45;;;;;;;0.24;93.63;94992.81;5029610;28;20728;-77
2023/03/18 01:01:58;;;;;;;16.02;7.82;;;;;;;0.15;94.04;94989.78;5029681;28;20208;-77
2023/03/18 01:04:26;;;;;;;12.57;6.15;;;;;;;0.04;94.37;94989.94;5016535;28;20274;-78
2023/03/18 01:06:53;;;;;;;10.82;5.82;;;;;;;-0.09;94.58;94986.63;5029467;28;20204;-77
2023/03/18 01:09:21;;;;;;;16.80;7.05;;;;;;;-0.33;95.41;94987.19;5029633;28;20204;-77
2023/03/18 01:11:49;;;;;;;29.92;16.10;;;;;;;-0.30;95.78;94984.84;5029946;28;20587;-77
2023/03/18 01:14:16;;;;;;;36.97;16.17;;;;;;;-0.12;95.46;94981.00;5021659;28;20205;-77
2023/03/18 01:16:43;;;;;;;31.75;14.73;;;;;;;-0.11;95.32;94980.75;5010578;28;20201;-77
2023/03/18 01:19:10;;;;;;;30.92;15.68;;;;;;;-0.07;95.50;94978.41;5022058;28;20205;-77
2023/03/18 01:21:37;;;;;;;21.70;7.70;;;;;;;-0.07;95.47;94976.56;5023766;28;20578;-78
2023/03/18 01:24:05;;;;;;;13.75;7.07;;;;;;;-0.05;95.99;94979.78;5029299;28;20229;-77
2023/03/18 01:26:32;;;;;;;21.27;8.68;;;;;;;0.08;95.41;94975.06;5029717;28;20212;-76
2023/03/18 01:29:00;;;;;;;18.63;8.15;;;;;;;0.12;95.30;94979.66;5028246;28;20679;-76
2023/03/18 01:31:28;;;;;;;20.75;8.82;;;;;;;0.17;94.74;94971.69;5029209;28;20235;-77
2023/03/18 01:33:55;;;;;;;13.50;6.25;;;;;;;0.15;94.46;94973.00;5029208;28;20204;-77
2023/03/18 01:36:22;;;;;;;20.52;8.57;;;;;;;0.17;94.45;94970.88;5028918;28;20204;-77
2023/03/18 01:38:49;;;;;;;17.55;7.78;;;;;;;0.17;94.35;94970.88;5028631;28;20250;-76
2023/03/18 01:41:17;;;;;;;13.63;6.47;;;;;;;0.12;94.79;94971.66;5029138;28;20205;-77
2023/03/18 01:43:44;;;;;;;9.82;5.93;;;;;;;0.14;94.43;94976.72;5028742;28;20651;-78
2023/03/18 01:46:35;;;;;;;16.52;5.82;;;;;;;0.13;94.65;94969.81;5028645;28;20215;-77
2023/03/18 01:49:04;;;;;;;10.00;5.47;;;;;;;0.12;94.43;94973.53;5028746;28;20219;-78
2023/03/18 01:51:32;;;;;;;11.77;5.13;;;;;;;0.08;94.79;94973.22;5016099;28;20232;-77
2023/03/18 01:54:01;;;;;;;12.43;6.60;;;;;;;-0.04;94.55;94970.72;5028365;28;20257;-76
2023/03/18 01:56:28;;;;;;;17.20;7.55;;;;;;;-0.08;94.65;94964.28;5028487;28;20675;-78
2023/03/18 01:58:57;;;;;;;14.88;6.35;;;;;;;-0.12;94.33;94957.84;5028359;28;20204;-77
2023/03/18 02:01:28;;;;;;;12.60;5.40;;;;;;;-0.11;94.54;94964.78;5028943;28;20215;-78
2023/03/18 02:03:58;;;;;;;8.75;5.13;;;;;;;-0.20;93.99;94971.63;5028444;28;20291;-78
2023/03/18 02:06:26;;;;;;;17.13;7.25;;;;;;;-0.23;94.65;94961.47;5028497;28;20667;-78
2023/03/18 02:08:54;;;;;;;11.70;6.07;;;;;;;-0.20;95.18;94958.31;5028135;28;20295;-78
2023/03/18 02:11:22;;;;;;;15.98;7.95;;;;;;;-0.14;95.31;94960.00;5028031;28;20590;-77
2023/03/18 02:13:49;;;;;;;13.55;6.35;;;;;;;-0.05;95.51;94953.16;5028392;28;20206;-77
2023/03/18 02:16:21;;;;;;;14.82;5.90;;;;;;;0.03;95.19;94959.84;5028387;28;20200;-78
2023/03/18 02:18:50;;;;;;;17.35;7.20;;;;;;;0.06;94.83;94959.34;5028451;28;21018;-78
2023/03/18 02:21:30;;;;;;;17.77;6.57;;;;;;;-0.04;94.41;94960.06;5028447;28;20239;-78
2023/03/18 02:24:06;;;;;;;9.85;5.88;;;;;;;-0.06;94.88;94962.19;5016009;28;20243;-78
2023/03/18 02:26:42;;;;;;;13.77;7.20;;;;;;;-0.06;94.28;94956.84;5028569;28;20207;-77
2023/03/18 02:29:14;;;;;;;18.50;6.65;;;;;;;-0.10;93.76;94958.41;5028401;28;20299;-78
2023/03/18 02:31:42;;;;;;;19.48;6.63;;;;;;;-0.12;93.97;94965.84;5028161;28;20224;-78
2023/03/18 02:34:11;;;;;;;13.88;6.00;;;;;;;-0.15;94.60;94955.72;5028204;28;20255;-77
2023/03/18 02:36:37;;;;;;;19.65;6.72;;;;;;;-0.21;93.88;94959.38;5028319;28;20200;-77
2023/03/18 02:39:05;;;;;;;17.90;8.02;;;;;;;-0.17;94.13;94959.69;5027917;28;20200;-77
2023/03/18 02:41:34;;;;;;;16.20;6.22;;;;;;;-0.11;93.93;94954.13;5027866;28;20208;-77
2023/03/18 02:44:02;;;;;;;15.77;7.28;;;;;;;-0.17;94.24;94952.50;5027877;28;20262;-77
2023/03/18 02:46:35;;;;;;;16.52;7.75;;;;;;;-0.18;94.88;94955.41;5027832;28;20671;-78
2023/03/18 02:49:06;;;;;;;9.93;6.00;;;;;;;-0.16;95.28;94954.13;5027968;28;20212;-78
2023/03/18 02:51:34;;;;;;;15.10;6.65;;;;;;;-0.07;95.99;94949.94;5014255;28;20239;-78
2023/03/18 02:54:05;;;;;;;15.50;7.50;;;;;;;-0.01;95.62;94954.25;5027617;28;20211;-78
2023/03/18 02:56:32;;;;;;;20.48;7.53;;;;;;;-0.05;95.57;94953.16;5027663;28;20291;-76
2023/03/18 02:58:59;;;;;;;12.68;6.38;;;;;;;-0.12;95.12;94954.38;5027907;28;20406;-78
2023/03/18 03:01:26;;;;;;;12.73;6.05;;;;;;;-0.30;94.87;94955.56;5027914;28;20204;-78
2023/03/18 03:03:55;;;;;;;10.90;6.20;;;;;;;-0.28;94.92;94942.81;5027718;28;20250;-78
2023/03/18 03:06:22;;;;;;;17.15;7.13;;;;;;;-0.36;94.67;94956.56;5027344;28;20589;-77
2023/03/18 03:08:48;;;;;;;15.43;6.45;;;;;;;-0.32;95.00;94947.03;5027732;28;20881;-77
2023/03/18 03:11:15;;;;;;;11.55;5.95;;;;;;;-0.33;95.34;94953.41;5027470;28;20714;-77
2023/03/18 03:13:44;;;;;;;13.10;6.47;;;;;;;-0.24;95.30;94961.72;5027897;28;20773;-78
2023/03/18 03:16:12;;;;;;;12.38;6.43;;;;;;;-0.23;95.34;94961.47;5027810;28;20235;-78
2023/03/18 03:18:39;;;;;;;10.48;6.03;;;;;;;-0.32;95.27;94960.34;5027672;28;20264;-77
2023/03/18 03:21:08;;;;;;;15.02;6.80;;;;;;;-0.32;95.63;94957.69;5027182;28;20200;-78
2023/03/18 03:23:35;;;;;;;8.90;5.45;;;;;;;-0.31;94.58;94961.94;5027319;28;20228;-79
2023/03/18 03:26:03;;;;;;;15.07;7.18;;;;;;;-0.46;94.30;94967.13;5027473;28;20200;-77
2023/03/18 03:28:31;;;;;;;18.80;6.47;;;;;;;-0.66;95.02;94973.00;5027559;28;20204;-77
2023/03/18 03:30:58;;;;;;;25.98;14.85;;;;;;;-0.76;96.04;94973.69;5027750;28;20243;-77
2023/03/18 03:33:25;;;;;;;27.02;15.02;;;;;;;-0.73;96.52;94972.41;5027580;28;20208;-78
2023/03/18 03:35:52;;;;;;;25.10;14.93;;;;;;;-0.56;96.34;94972.34;5027763;28;20613;-78
2023/03/18 03:38:21;;;;;;;23.98;14.07;;;;;;;-0.47;96.23;94973.50;5027602;28;20207;-77
2023/03/18 03:40:48;;;;;;;26.42;15.07;;;;;;;-0.41;95.98;94975.16;5027641;28;20729;-77
2023/03/18 03:43:15;;;;;;;27.48;14.80;;;;;;;-0.35;95.74;94968.81;5027309;28;20689;-78
2023/03/18 03:45:43;;;;;;;28.13;15.93;;;;;;;-0.49;95.05;94973.72;5027499;28;20208;-79
2023/03/18 03:48:10;;;;;;;25.48;14.15;;;;;;;-0.61;94.77;94977.59;5027519;28;20275;-78
2023/03/18 03:50:38;;;;;;;24.77;13.48;;;;;;;-0.72;95.65;94974.81;5027210;28;20480;-79
2023/03/18 03:53:06;;;;;;;23.52;12.88;;;;;;;-0.56;96.49;94985.63;5029146;28;20290;-79
2023/03/18 03:55:34;;;;;;;28.23;14.90;;;;;;;-0.50;96.29;94979.31;5030959;28;20405;-79
2023/03/18 03:58:01;;;;;;;29.25;16.98;;;;;;;-0.54;96.04;94964.88;5030915;28;20266;-79
2023/03/18 04:00:28;;;;;;;40.63;24.92;;;;;;;-0.65;96.35;94979.94;5031102;28;20286;-80
2023/03/18 04:02:55;;;;;;;44.55;25.77;;;;;;;-0.70;96.70;94985.22;5011558;28;20254;-79
2023/03/18 04:05:24;;;;;;;41.60;24.90;;;;;;;-0.74;96.67;94976.91;5024109;28;20208;-76
2023/03/18 04:07:51;;;;;;;45.13;22.60;;;;;;;-0.59;97.31;94978.16;5030946;28;20629;-79
2023/03/18 04:10:20;;;;;;;17.73;9.18;;;;;;;-0.78;97.48;94991.75;5030701;28;20204;-78
2023/03/18 04:12:49;;;;;;;18.77;9.45;;;;;;;-0.79;97.65;94984.03;5030727;28;20690;-78
2023/03/18 04:15:18;;;;;;;14.07;7.75;;;;;;;-0.90;97.78;94988.41;5030687;28;20200;-79
2023/03/18 04:17:45;;;;;;;31.50;16.73;;;;;;;-0.86;97.77;95000.19;5030971;28;20251;-80
2023/03/18 04:20:13;;;;;;;18.63;7.45;;;;;;;-0.84;97.80;95003.41;5030690;28;20609;-79
2023/03/18 04:22:40;;;;;;;20.90;9.48;;;;;;;-0.85;97.87;95004.44;5031151;28;20338;-80
2023/03/18 04:25:09;;;;;;;24.30;10.70;;;;;;;-0.75;97.15;95017.84;5030061;28;20232;-80
2023/03/18 04:27:37;;;;;;;22.85;10.20;;;;;;;-0.75;96.28;95017.84;5030770;28;20287;-80
2023/03/18 04:30:08;;;;;;;18.10;8.65;;;;;;;-0.72;95.96;95016.56;5030693;28;20201;-80
2023/03/18 04:32:35;;;;;;;16.85;8.23;;;;;;;-0.68;95.98;95022.19;5030708;28;20232;-78
2023/03/18 04:35:02;;;;;;;19.95;6.40;;;;;;;-0.76;95.57;95026.88;5030479;28;20211;-78
2023/03/18 04:37:28;;;;;;;20.58;9.50;;;;;;;-0.67;96.23;95019.28;5030360;28;20204;-79
2023/03/18 04:39:55;;;;;;;18.48;7.80;;;;;;;-0.59;95.43;95028.69;5029938;28;20211;-79
2023/03/18 04:42:22;;;;;;;20.85;9.48;;;;;;;-0.68;95.60;95035.50;5030547;28;20665;-78
2023/03/18 04:44:49;;;;;;;20.75;9.25;;;;;;;-0.60;95.84;95035.06;5029976;28;20682;-77
2023/03/18 04:47:18;;;;;;;16.30;9.07;;;;;;;-0.55;95.55;95027.94;5029678;28;20205;-79
2023/03/18 04:49:45;;;;;;;39.13;22.92;;;;;;;-0.44;95.17;95028.88;5030342;28;20254;-79
2023/03/18 04:52:12;;;;;;;53.65;27.55;;;;;;;-0.35;95.35;95032.69;5029956;28;20274;-79
2023/03/18 04:54:38;;;;;;;52.75;33.00;;;;;;;-0.03;95.01;95036.25;5029854;28;20710;-80
2023/03/18 04:57:06;;;;;;;51.75;32.05;;;;;;;0.56;93.68;95028.22;5029461;28;20218;-79
2023/03/18 04:59:33;;;;;;;43.72;27.45;;;;;;;1.26;90.30;95026.25;5030470;28;20204;-78
2023/03/18 05:02:00;;;;;;;42.80;24.33;;;;;;;2.07;87.81;95021.19;5031383;28;20213;-79
2023/03/18 05:04:28;;;;;;;33.35;18.60;;;;;;;2.63;83.44;95014.03;5028704;28;20258;-78
2023/03/18 05:06:55;;;;;;;19.35;10.48;;;;;;;3.31;81.30;95014.44;5029568;28;20196;-76
2023/03/18 05:09:22;;;;;;;32.08;17.10;;;;;;;4.37;77.82;95001.63;5029658;28;20295;-77
2023/03/18 05:11:49;;;;;;;24.75;14.45;;;;;;;4.93;76.28;95002.75;5029564;28;20231;-77
2023/03/18 05:14:16;;;;;;;19.17;9.68;;;;;;;5.49;73.41;94998.69;5016686;28;20255;-78
2023/03/18 05:16:43;;;;;;;21.05;12.35;;;;;;;5.84;72.83;94989.41;5029864;28;20211;-78
2023/03/18 05:19:10;;;;;;;27.50;16.20;;;;;;;5.98;71.65;94996.50;5030071;28;20250;-77
2023/03/18 05:21:38;;;;;;;26.25;13.32;;;;;;;6.85;69.57;94995.19;5029900;28;20270;-77
2023/03/18 05:24:05;;;;;;;45.25;19.33;;;;;;;7.46;66.30;94984.94;5030481;28;20244;-78
2023/03/18 05:26:32;;;;;;;39.28;20.90;;;;;;;7.85;64.99;94979.03;5029451;28;20204;-77
2023/03/18 05:29:00;;;;;;;39.35;22.85;;;;;;;8.32;62.13;94987.78;5029906;28;20196;-78
2023/03/18 05:31:26;;;;;;;43.25;20.75;;;;;;;9.04;59.59;94971.44;5029107;28;20211;-79
2023/03/18 05:33:53;;;;;;;50.05;23.17;;;;;;;9.53;60.09;94961.53;5029429;28;20296;-76
2023/03/18 05:36:21;;;;;;;43.85;23.70;;;;;;;9.29;59.68;94966.53;5028911;28;20197;-79
2023/03/18 05:38:49;;;;;;;51.35;25.40;;;;;;;10.10;57.22;94964.25;5029453;28;20200;-76
2023/03/18 05:41:16;;;;;;;40.67;22.83;;;;;;;10.35;56.81;94965.41;5028834;28;20204;-78
2023/03/18 05:43:45;;;;;;;44.92;22.65;;;;;;;9.85;58.45;94969.25;5029537;28;20208;-78
2023/03/18 05:46:12;;;;;;;52.00;32.47;;;;;;;10.23;55.91;94968.75;5029101;28;20299;-77
2023/03/18 05:48:39;;;;;;;55.40;34.67;;;;;;;10.56;55.75;94967.16;5029687;28;20204;-78
2023/03/18 05:51:06;;;;;;;35.75;18.83;;;;;;;10.54;52.15;94974.81;5028855;28;20282;-77
2023/03/18 05:53:33;;;;;;;36.05;19.67;;;;;;;10.16;53.13;94973.78;5029174;28;20285;-77
2023/03/18 05:56:01;;;;;;;30.30;14.55;;;;;;;9.49;53.65;94980.28;5029062;28;20201;-75
2023/03/18 05:58:30;;;;;;;28.30;16.75;;;;;;;9.17;54.99;94986.78;5028953;28;20204;-77
2023/03/18 06:00:57;;;;;;;22.88;9.35;;;;;;;8.18;57.33;94995.06;5029399;28;20208;-77
2023/03/18 06:03:24;;;;;;;10.10;5.28;;;;;;;7.53;59.26;95008.78;5029234;28;20242;-77
2023/03/18 06:05:51;;;;;;;12.18;6.40;;;;;;;6.64;61.66;95018.97;5028796;28;20200;-77
2023/03/18 06:08:18;;;;;;;10.60;4.68;;;;;;;7.62;58.70;95011.59;5029365;28;20200;-76
2023/03/18 06:10:45;;;;;;;10.93;5.28;;;;;;;8.21;56.48;94999.84;5028413;28;20616;-77
2023/03/18 06:13:14;;;;;;;6.72;4.10;;;;;;;9.56;53.04;94990.66;5028944;28;20707;-76
2023/03/18 06:15:40;;;;;;;7.57;4.72;;;;;;;9.40;52.81;94998.38;5028286;28;20219;-77
2023/03/18 06:18:08;;;;;;;15.27;7.68;;;;;;;9.38;54.65;94997.88;5028526;28;20266;-74
2023/03/18 06:20:35;;;;;;;7.82;4.50;;;;;;;11.33;60.95;94992.59;5028078;28;20211;-75
2023/03/18 06:23:02;;;;;;;7.60;5.18;;;;;;;11.33;57.09;94996.09;5028004;28;20246;-74
2023/03/18 06:25:29;;;;;;;11.00;5.53;;;;;;;11.35;60.60;94998.47;5027974;28;20674;-77
2023/03/18 06:27:56;;;;;;;27.35;5.40;;;;;;;11.64;49.27;94995.03;5028331;28;20208;-76
2023/03/18 06:30:24;;;;;;;13.10;8.00;;;;;;;11.75;48.95;94990.88;5027971;28;20212;-75
2023/03/18 06:32:52;;;;;;;15.95;7.40;;;;;;;13.03;58.17;94977.56;5027890;28;20718;-75
2023/03/18 06:35:18;;;;;;;8.32;5.50;;;;;;;13.30;48.63;94973.47;5027951;28;20283;-76
2023/03/18 06:37:45;;;;;;;8.88;5.80;;;;;;;14.03;46.79;94968.13;5027969;28;20258;-76
2023/03/18 06:40:12;;;;;;;16.45;9.15;;;;;;;13.64;47.07;94949.75;5028499;28;20220;-77
2023/03/18 06:42:39;;;;;;;16.60;9.00;;;;;;;14.04;44.39;94952.59;5028099;28;20674;-76
2023/03/18 06:45:08;;;;;;;10.00;6.07;;;;;;;13.18;43.90;94954.41;5028411;28;20223;-78
2023/03/18 06:47:37;;;;;;;12.65;5.47;;;;;;;14.06;43.07;94953.06;5026549;28;20702;-80
2023/03/18 06:50:04;;;;;;;9.20;5.30;;;;;;;13.37;42.65;94951.97;5027259;28;20544;-80
2023/03/18 06:52:31;;;;;;;11.65;5.45;;;;;;;13.23;43.43;94951.47;5027366;28;20307;-80
2023/03/18 06:54:58;;;;;;;15.82;6.07;;;;;;;12.78;43.59;94965.00;5027268;28;20207;-80
2023/03/18 06:57:25;;;;;;;10.45;5.85;;;;;;;12.08;45.18;94967.41;5027065;28;20197;-81
2023/03/18 06:59:52;;;;;;;10.70;5.25;;;;;;;11.42;47.06;94970.88;5024551;28;20200;-78
2023/03/18 07:02:22;;;;;;;8.90;5.25;;;;;;;10.96;48.33;94964.25;5026744;28;20247;-79
2023/03/18 07:04:51;;;;;;;6.30;3.90;;;;;;;9.84;50.37;94967.66;5026800;28;20207;-79
2023/03/18 07:07:18;;;;;;;9.57;5.10;;;;;;;9.68;50.57;94963.81;5027032;28;20200;-80
2023/03/18 07:09:44;;;;;;;8.25;5.03;;;;;;;9.87;51.82;94969.75;5027170;28;21044;-80
2023/03/18 07:12:13;;;;;;;9.43;5.40;;;;;;;10.10;50.66;94969.66;5027295;28;20196;-80
2023/03/18 07:14:40;;;;;;;8.23;3.83;;;;;;;8.94;53.96;94976.31;5027255;28;20280;-80
2023/03/18 07:17:07;;;;;;;13.18;6.03;;;;;;;8.68;54.81;94976.16;5026919;28;20208;-78
2023/03/18 07:19:34;;;;;;;14.23;6.38;;;;;;;8.40;55.52;94973.53;5027462;28;20262;-80
2023/03/18 07:22:03;;;;;;;16.27;8.27;;;;;;;8.15;56.72;94976.78;5027640;28;20278;-79
2023/03/18 07:24:30;;;;;;;13.70;5.45;;;;;;;8.20;55.94;94973.97;5026738;28;20333;-79
2023/03/18 07:26:57;;;;;;;13.18;7.22;;;;;;;8.43;55.00;94975.66;5028180;28;20675;-79
2023/03/18 07:29:24;;;;;;;8.82;3.75;;;;;;;7.36;57.76;94989.72;5032151;28;20197;-80
2023/03/18 07:31:51;;;;;;;7.72;4.05;;;;;;;6.85;59.00;94987.91;5032069;28;20212;-79
2023/03/18 07:34:20;;;;;;;13.35;6.45;;;;;;;7.83;58.28;94988.50;5031998;28;20587;-80
2023/03/18 07:36:46;;;;;;;5.97;3.17;;;;;;;7.80;57.59;94986.41;5032315;28;20220;-80
2023/03/18 07:39:14;;;;;;;15.77;6.28;;;;;;;7.50;58.22;94982.44;5031821;28;20215;-80
2023/03/18 07:41:41;;;;;;;12.73;7.63;;;;;;;6.79;60.27;94994.50;5031598;28;20196;-80
2023/03/18 07:44:08;;;;;;;13.15;8.00;;;;;;;6.96;61.19;94989.38;5031332;28;20575;-79
2023/03/18 07:46:35;;;;;;;19.58;8.73;;;;;;;6.58;62.53;94993.19;5031363;28;20226;-79
2023/03/18 07:49:02;;;;;;;23.52;11.38;;;;;;;6.11;65.32;94989.59;5031584;28;20262;-77
2023/03/18 07:51:29;;;;;;;18.80;10.23;;;;;;;5.39;67.78;95001.47;5031243;28;20235;-79
2023/03/18 07:53:56;;;;;;;18.42;8.93;;;;;;;6.22;66.93;94991.06;5031638;28;20707;-79
2023/03/18 07:56:24;;;;;;;18.35;8.30;;;;;;;5.75;67.46;94985.72;5031401;28;20282;-79
2023/03/18 07:58:51;;;;;;;17.25;9.98;;;;;;;6.41;66.11;94986.47;5031070;28;20548;-79
2023/03/18 08:01:19;;;;;;;18.77;10.85;;;;;;;6.46;64.39;94984.78;5031550;28;20212;-80
2023/03/18 08:03:46;;;;;;;23.88;13.23;;;;;;;6.00;65.68;94993.53;5031518;28;20196;-80
2023/03/18 08:06:14;;;;;;;14.07;7.63;;;;;;;6.17;65.35;94993.81;5031453;28;20208;-80
2023/03/18 08:08:42;;;;;;;16.48;8.65;;;;;;;6.28;65.81;94997.19;5028807;28;20311;-77
2023/03/18 08:11:09;;;;;;;21.85;10.50;;;;;;;6.29;64.85;94986.09;5030500;28;20232;-80
2023/03/18 08:13:37;;;;;;;22.65;10.07;;;;;;;6.39;65.20;94979.78;5030561;28;20228;-79
2023/03/18 08:16:04;;;;;;;25.70;12.07;;;;;;;6.66;65.72;94979.09;5031889;28;20234;-78
2023/03/18 08:18:31;;;;;;;23.10;9.95;;;;;;;7.10;63.39;94981.31;5031051;28;20826;-79
2023/03/18 08:20:58;;;;;;;18.15;10.43;;;;;;;7.05;62.68;94982.19;5032285;28;20200;-81
2023/03/18 08:23:25;;;;;;;18.35;10.10;;;;;;;7.05;63.10;94986.78;5030969;28;20224;-79
2023/03/18 08:25:52;;;;;;;15.77;10.00;;;;;;;6.87;62.84;95001.88;5031128;28;20232;-80
2023/03/18 08:28:19;;;;;;;20.15;10.80;;;;;;;6.75;63.43;94998.84;5031022;28;20216;-78
2023/03/18 08:30:47;;;;;;;15.82;8.13;;;;;;;6.22;64.69;95001.81;5028709;28;20200;-78
2023/03/18 08:33:14;;;;;;;16.42;8.25;;;;;;;6.29;64.70;95001.44;5029648;28;20320;-81
2023/03/18 08:35:41;;;;;;;27.50;10.30;;;;;;;6.01;65.97;94990.53;5030823;28;20193;-82
2023/03/18 08:38:08;;;;;;;18.13;9.02;;;;;;;6.48;64.30;94982.59;5028501;28;20207;-78
2023/03/18 08:40:35;;;;;;;29.40;9.60;;;;;;;6.58;63.66;94982.44;5030032;28;20219;-79
2023/03/18 08:43:02;;;;;;;15.80;9.60;;;;;;;6.54;63.93;94984.94;5030691;28;20622;-79
2023/03/18 08:45:28;;;;;;;14.73;8.60;;;;;;;6.61;64.20;94992.63;5029887;28;20362;-77
2023/03/18 08:47:57;;;;;;;22.25;8.75;;;;;;;6.78;63.46;94991.00;5029566;28;20254;-79
2023/03/18 08:50:27;;;;;;;21.35;9.88;;;;;;;6.67;63.02;94983.38;5024103;28;20196;-77
2023/03/18 08:52:56;;;;;;;15.63;6.80;;;;;;;6.61;64.56;94988.03;5029266;28;20718;-78
2023/03/18 08:55:24;;;;;;;15.15;7.90;;;;;;;6.46;64.49;94990.97;5026737;28;20560;-80
2023/03/18 08:57:51;;;;;;;21.73;8.85;;;;;;;6.68;63.05;94985.00;5029878;28;20275;-80
2023/03/18 09:00:20;;;;;;;13.90;7.88;;;;;;;6.86;62.64;94994.91;5029576;28;20197;-80
2023/03/18 09:02:47;;;;;;;12.43;5.78;;;;;;;7.02;63.26;94996.25;5029195;28;20200;-80
2023/03/18 09:05:15;;;;;;;9.07;5.57;;;;;;;7.35;60.58;94999.72;5029485;28;20232;-82
2023/03/18 09:07:42;;;;;;;15.30;8.63;;;;;;;6.86;60.19;94989.50;5028371;28;20730;-79
2023/03/18 09:10:11;;;;;;;16.60;9.25;;;;;;;7.29;60.12;95000.09;5029140;28;20220;-78
2023/03/18 09:12:38;;;;;;;18.38;9.68;;;;;;;7.53;60.90;94998.00;5028669;28;20189;-75
2023/03/18 09:15:13;;;;;;;17.55;8.57;;;;;;;7.91;58.88;94993.22;5028896;28;20204;-77
2023/03/18 09:17:40;;;;;;;15.10;8.10;;;;;;;7.91;58.65;94987.03;5030291;28;20199;-80
2023/03/18 09:20:11;;;;;;;16.08;8.30;;;;;;;7.83;57.50;95002.00;5031147;28;20223;-84
2023/03/18 09:22:42;;;;;;;15.77;7.10;;;;;;;7.96;57.65;94995.00;5029263;28;20239;-79
2023/03/18 09:25:09;;;;;;;9.88;4.80;;;;;;;8.54;53.71;94995.91;5028871;28;21153;-82
2023/03/18 09:27:37;;;;;;;5.30;3.13;;;;;;;8.87;51.10;94982.16;5029181;28;20203;-81
2023/03/18 09:30:06;;;;;;;9.68;5.72;;;;;;;9.41;52.95;94986.47;5031019;28;20667;-85
2023/03/18 09:32:32;;;;;;;8.95;4.65;;;;;;;9.25;51.42;94987.97;5031854;28;20727;-85
2023/03/18 09:34:59;;;;;;;10.00;3.70;;;;;;;9.49;48.38;94993.00;5029769;28;20286;-81
2023/03/18 09:37:26;;;;;;;5.65;2.95;;;;;;;8.73;50.51;94989.53;5028468;28;20732;-80
2023/03/18 09:39:54;;;;;;;3.97;2.55;;;;;;;8.69;49.72;94977.75;5028449;28;20185;-80
2023/03/18 09:42:41;;;;;;;6.88;3.00;;;;;;;9.29;50.45;94982.75;5028261;28;20830;-80
2023/03/18 09:45:17;;;;;;;6.05;3.15;;;;;;;9.14;50.63;94979.31;5027717;28;20204;-83
2023/03/18 09:48:02;;;;;;;5.10;2.67;;;;;;;8.73;51.27;94986.84;5027017;28;20196;-79
2023/03/18 09:50:40;;;;;;;6.13;3.50;;;;;;;8.55;52.80;94981.28;5028052;28;20250;-78
2023/03/18 09:53:16;;;;;;;9.00;3.45;;;;;;;8.72;51.97;94987.94;5026794;28;20270;-79
2023/03/18 09:55:48;;;;;;;7.88;2.88;;;;;;;8.35;53.75;94987.16;5026535;28;20203;-84
2023/03/18 09:58:25;;;;;;;4.57;2.53;;;;;;;8.22;54.25;94979.84;5028181;28;20678;-80
2023/03/18 10:00:57;;;;;;;5.55;2.72;;;;;;;8.24;54.81;94984.94;5027970;28;20251;-82
2023/03/18 10:03:34;;;;;;;3.92;2.50;;;;;;;8.54;52.20;95001.31;5028805;28;20212;-82
2023/03/18 10:06:06;;;;;;;2.60;1.77;;;;;;;8.33;52.60;94989.38;5025817;28;20204;-78
2023/03/18 10:08:46;;;;;;;3.13;2.33;;;;;;;7.93;52.71;95003.69;5027434;28;20930;-77
2023/03/18 10:11:22;;;;;;;2.58;1.05;;;;;;;7.96;53.94;94995.78;5023798;28;20208;-81
2023/03/18 10:14:01;;;;;;;5.85;3.58;;;;;;;7.90;52.75;94988.13;5025469;28;20302;-79
2023/03/18 10:16:32;;;;;;;1.95;1.73;;;;;;;7.33;53.70;95003.78;5027385;28;20192;-85
2023/03/18 10:19:00;;;;;;;2.78;1.60;;;;;;;7.58;52.71;95000.63;5027893;28;20674;-82
2023/03/18 10:21:38;;;;;;;4.80;2.45;;;;;;;7.88;52.44;94993.03;5020864;28;20257;-79
2023/03/18 10:24:18;;;;;;;2.78;1.60;;;;;;;7.80;47.71;94998.00;5011833;28;20241;-77
2023/03/18 10:26:49;;;;;;;3.38;1.77;;;;;;;7.75;49.98;95000.81;5028160;28;20212;-76
2023/03/18 10:29:35;;;;;;;1.55;1.42;;;;;;;7.70;48.56;94987.44;5026715;28;20200;-76
2023/03/18 10:32:16;;;;;;;2.45;1.58;;;;;;;8.07;47.39;94986.38;5026115;28;20219;-76
2023/03/18 10:35:00;;;;;;;1.45;1.20;;;;;;;8.23;47.51;94989.56;5026436;28;20228;-75
2023/03/18 10:37:41;;;;;;;2.17;1.85;;;;;;;8.55;48.36;94975.91;5024585;28;20287;-76
2023/03/18 10:40:14;;;;;;;2.80;1.70;;;;;;;8.96;46.78;94969.50;5024050;28;20598;-73
2023/03/18 10:42:43;;;;;;;10.75;1.75;;;;;;;9.30;46.92;94973.50;5026619;28;20203;-76
2023/03/18 10:45:21;;;;;;;3.17;1.42;;;;;;;9.00;44.63;94986.72;5026109;28;20196;-76
2023/03/18 10:47:56;;;;;;;2.22;1.60;;;;;;;8.76;45.21;94967.28;5026236;28;20211;-75
2023/03/18 10:50:31;;;;;;;1.45;1.27;;;;;;;8.60;43.81;94998.50;5026496;28;20199;-77
2023/03/18 10:53:04;;;;;;;2.35;1.52;;;;;;;8.55;43.22;94970.50;5026758;28;20196;-77
2023/03/18 10:55:38;;;;;;;1.92;1.25;;;;;;;9.20;43.74;94959.16;5026539;28;20204;-77
2023/03/18 10:58:16;;;;;;;7.30;1.63;;;;;;;9.33;44.31;94962.88;5026324;28;20239;-76
2023/03/18 11:00:43;;;;;;;3.35;1.98;;;;;;;9.52;43.19;94959.94;5025446;28;20719;-77
2023/03/18 11:03:20;;;;;;;7.57;1.83;;;;;;;9.65;43.53;94964.44;5025518;28;20198;-79
2023/03/18 11:05:49;;;;;;;3.78;1.85;;;;;;;9.78;42.71;94952.69;5026956;28;20290;-76
2023/03/18 11:08:33;;;;;;;3.85;1.83;;;;;;;9.37;42.67;94954.94;5024290;28;20259;-80
2023/03/18 11:11:03;;;;;;;2.47;1.45;;;;;;;9.11;43.21;94966.41;5024830;28;20278;-77
2023/03/18 11:13:32;;;;;;;1.95;1.45;;;;;;;8.82;43.38;94964.19;5023080;28;20235;-78
2023/03/18 11:15:59;;;;;;;3.35;2.00;;;;;;;8.88;43.63;94959.47;5025858;28;20196;-75
2023/03/18 11:18:27;;;;;;;1.77;1.48;;;;;;;8.49;44.01;94960.91;5025793;28;20492;-75
2023/03/18 11:20:59;;;;;;;2.33;1.75;;;;;;;7.97;47.20;94980.41;5025760;28;20200;-76
2023/03/18 11:23:45;;;;;;;2.25;1.70;;;;;;;7.74;49.29;94966.88;5025981;28;20224;-77
2023/03/18 11:26:20;;;;;;;3.92;1.67;;;;;;;7.76;49.29;94964.66;5024259;28;20196;-75
2023/03/18 11:28:48;;;;;;;1.50;0.85;;;;;;;7.67;48.84;94957.56;5026484;28;20196;-78
2023/03/18 11:31:17;;;;;;;1.27;1.17;;;;;;;7.73;47.45;94959.88;5026042;28;20204;-74
2023/03/18 11:33:44;;;;;;;2.88;1.77;;;;;;;8.20;47.04;94963.16;5025803;28;20220;-74
2023/03/18 11:36:17;;;;;;;1.80;1.23;;;;;;;8.51;46.29;94958.69;5026220;28;20204;-77